メインページ
METAR-TAF:

METAR-TAF

空港 :

アルマトイ, カザフスタン

アルマトイ国際空港

緯度: 43-14N, 経度: 076-56E, 海抜: 847m

現時点の気象観測

当レポートは44分前の14:00(UTC)に作成
東/南東の風 6kt
気温 31°C
湿度 31%
気圧 1004 hPa
視程10km以上
高度5000ftの雲はほとんどない, 積乱雲.
高度10000ftの雲は散在している

METAR: UAAA 271400Z 11003MPS 9999 FEW050CB SCT100 31/12 Q1004 R05L/CLRD65 NOSIG

時間: 20:44 (14:44 UTC)

予報

当レポートは3時間44分前の11:00(UTC)に作成
予報は27日の 12時(UTC)から 28日の 12時(UTC)まで有効
北東の風 12kt
視程10km以上
高度5000ftの雲は散在している, 積乱雲.
高度10000ftの千切れ雲あり
確率 40% :
27日の 12時(UTC)から 27日の 15時(UTC)まで一時的に
激しい雷雨
27日の 15時(UTC)から 27日の 16時(UTC)まで徐々に
の風 10kt
28日の 03時(UTC)から 28日の 04時(UTC)まで徐々に
西の風 12kt
高度5000ftの千切れ雲あり, 積乱雲.
高度10000ftの千切れ雲あり
確率 40% :
28日の 06時(UTC)から 28日の 12時(UTC)まで一時的に
激しい雷雨

TAF: UAAA 271100Z 2712/2812 04006MPS 9999 SCT050CB BKN100 TX37/2809Z TN21/2801Z PROB40 TEMPO 2712/2715 TS BECMG 2715/2716 18005MPS BECMG 2803/2804 26006MPS BKN050CB BKN100 PROB40 TEMPO 2806/2812 TS

4,000以上の空港の気象観測と天気予報(METAR報とTAF報)

利用可能な観測所は地図上に黄色い丸と赤い丸で示す。

丸の上にカーソルを重ねると観測所名を参照できる。

次にクリックすると気象観測と天気予報を参照できる。

マップの切り替え:黒色「×」印の緑ボタンをクリックして拡大、「-」印の緑ボタンをクリックして縮小、緑色の三角印をクリックして隣りの地図に切り替え


METAR-TAF: